createdAt,value
2019-06-01T00:01:09.182Z,14.18
2019-06-01T00:03:38.638Z,14.14
2019-06-01T00:06:27.504Z,14.11
2019-06-01T00:08:56.980Z,14.06
2019-06-01T00:11:26.532Z,14.03
2019-06-01T00:13:56.054Z,14.01
2019-06-01T00:16:25.504Z,13.99
2019-06-01T00:18:55.064Z,13.98
2019-06-01T00:21:24.957Z,13.96
2019-06-01T00:23:54.478Z,13.94
2019-06-01T00:26:23.959Z,13.92
2019-06-01T00:28:53.416Z,13.91
2019-06-01T00:31:22.974Z,13.89
2019-06-01T00:33:52.484Z,13.88
2019-06-01T00:36:21.939Z,13.85
2019-06-01T00:38:52.062Z,13.83
2019-06-01T00:41:22.417Z,13.81
2019-06-01T00:43:52.526Z,13.78
2019-06-01T00:46:22.084Z,13.76
2019-06-01T00:48:52.086Z,13.75
2019-06-01T00:51:21.735Z,13.75
2019-06-01T00:53:51.841Z,13.73
2019-06-01T00:56:21.565Z,13.73
2019-06-01T00:58:51.984Z,13.72
2019-06-01T01:01:21.572Z,13.71
2019-06-01T01:03:52.247Z,13.72
2019-06-01T01:06:21.842Z,13.72
2019-06-01T01:08:51.341Z,13.73
2019-06-01T01:11:20.798Z,13.73
2019-06-01T01:13:51.304Z,13.73
2019-06-01T01:16:20.884Z,13.74
2019-06-01T01:18:51.738Z,13.73
2019-06-01T01:21:21.501Z,13.74
2019-06-01T01:23:53.016Z,13.73
2019-06-01T01:26:22.228Z,13.72
2019-06-01T01:28:52.718Z,13.70
2019-06-01T01:31:22.455Z,13.69
2019-06-01T01:33:51.937Z,13.66
2019-06-01T01:36:21.416Z,13.65
2019-06-01T01:38:52.205Z,13.61
2019-06-01T01:41:22.094Z,13.61
2019-06-01T01:43:52.764Z,13.59
2019-06-01T01:46:22.309Z,13.58
2019-06-01T01:48:52.035Z,13.58
2019-06-01T01:51:21.572Z,13.57
2019-06-01T01:54:10.403Z,13.55
2019-06-01T01:56:39.889Z,13.55
2019-06-01T01:59:09.361Z,13.54
2019-06-01T02:01:38.874Z,13.52
2019-06-01T02:04:08.345Z,13.52
2019-06-01T02:06:37.806Z,13.51
2019-06-01T02:09:09.116Z,13.50
2019-06-01T02:11:38.583Z,13.50
2019-06-01T02:14:08.285Z,13.49
2019-06-01T02:16:37.758Z,13.49
2019-06-01T02:19:07.223Z,13.46
2019-06-01T02:21:36.708Z,13.44
2019-06-01T02:24:06.270Z,13.42
2019-06-01T02:26:35.748Z,13.40
2019-06-01T02:29:05.413Z,13.36
2019-06-01T02:31:41.449Z,13.31
2019-06-01T02:34:06.343Z,13.27
2019-06-01T02:36:35.888Z,13.22
2019-06-01T02:39:09.704Z,13.17
2019-06-01T02:41:39.258Z,13.13
2019-06-01T02:44:08.815Z,13.08
2019-06-01T02:46:38.275Z,13.04
2019-06-01T02:49:07.829Z,13.02
2019-06-01T02:51:37.293Z,12.98
2019-06-01T02:54:06.867Z,12.97
2019-06-01T02:56:36.425Z,12.97
2019-06-01T02:59:06.774Z,12.97
2019-06-01T03:01:38.483Z,12.97
2019-06-01T03:04:11.161Z,12.97
2019-06-01T03:06:43.448Z,12.96
2019-06-01T03:09:13.837Z,12.94
2019-06-01T03:11:43.566Z,12.91
2019-06-01T03:14:13.576Z,12.88
2019-06-01T03:16:43.789Z,12.85
2019-06-01T03:19:15.386Z,12.82
2019-06-01T03:21:49.331Z,12.81
2019-06-01T03:24:24.988Z,12.80
2019-06-01T03:26:55.854Z,12.81
2019-06-01T03:29:30.262Z,12.81
2019-06-01T03:32:22.546Z,12.81
2019-06-01T03:34:31.088Z,12.82
2019-06-01T03:37:02.785Z,12.82
2019-06-01T03:39:32.835Z,12.84
2019-06-01T03:42:03.336Z,12.83
2019-06-01T03:44:33.088Z,12.84
2019-06-01T03:47:03.806Z,12.86
2019-06-01T03:49:33.389Z,12.86
2019-06-01T03:52:03.091Z,12.87
2019-06-01T03:54:32.635Z,12.87
2019-06-01T03:57:03.556Z,12.88
2019-06-01T03:59:33.222Z,12.89
2019-06-01T04:02:03.026Z,12.90
2019-06-01T04:04:32.615Z,12.91
2019-06-01T04:07:03.322Z,12.91
2019-06-01T04:09:32.896Z,12.93
2019-06-01T04:12:03.419Z,12.94
2019-06-01T04:14:33.044Z,12.96
2019-06-01T04:17:04.011Z,12.99
2019-06-01T04:19:33.707Z,13.04
2019-06-01T04:22:04.019Z,13.08
2019-06-01T04:24:33.656Z,13.13
2019-06-01T04:27:04.123Z,13.18
2019-06-01T04:29:33.785Z,13.24
2019-06-01T04:32:04.418Z,13.29
2019-06-01T04:34:35.811Z,13.34
2019-06-01T04:37:05.543Z,13.41
2019-06-01T04:39:35.009Z,13.46
2019-06-01T04:42:05.563Z,13.54
2019-06-01T04:44:35.357Z,13.60
2019-06-01T04:47:04.909Z,13.68
2019-06-01T04:49:35.760Z,13.74
2019-06-01T04:52:06.649Z,13.79
2019-06-01T04:54:36.369Z,13.84
2019-06-01T04:57:06.760Z,13.90
2019-06-01T04:59:37.890Z,13.98
2019-06-01T05:02:07.612Z,14.05
2019-06-01T05:04:37.075Z,14.14
2019-06-01T05:07:07.214Z,14.20
2019-06-01T05:09:36.816Z,14.27
2019-06-01T05:12:07.514Z,14.35
2019-06-01T05:14:37.007Z,14.43
2019-06-01T05:17:07.827Z,14.53
2019-06-01T05:19:37.408Z,14.61
2019-06-01T05:22:06.962Z,14.69
2019-06-01T05:24:36.460Z,14.78
2019-06-01T05:27:06.859Z,14.88
2019-06-01T05:29:36.415Z,14.98
2019-06-01T05:32:06.057Z,15.05
2019-06-01T05:34:35.596Z,15.15
2019-06-01T05:37:05.108Z,15.24
2019-06-01T05:39:34.596Z,15.35
2019-06-01T05:42:04.322Z,15.46
2019-06-01T05:44:33.801Z,15.56
2019-06-01T05:47:03.304Z,15.68
2019-06-01T05:49:32.798Z,15.79
2019-06-01T05:52:02.250Z,15.91
2019-06-01T05:54:31.764Z,16.03
2019-06-01T05:57:01.222Z,16.16
2019-06-01T05:59:30.691Z,16.30
2019-06-01T06:02:00.175Z,16.43
2019-06-01T06:04:29.706Z,16.56
2019-06-01T06:06:59.192Z,16.71
2019-06-01T06:09:28.684Z,16.84
2019-06-01T06:11:58.224Z,16.97
2019-06-01T06:14:27.670Z,17.12
2019-06-01T06:16:57.132Z,17.25
2019-06-01T06:19:26.633Z,17.39
2019-06-01T06:21:56.104Z,17.54
2019-06-01T06:24:25.602Z,17.68
2019-06-01T06:26:55.075Z,17.82
2019-06-01T06:29:24.617Z,17.95
2019-06-01T06:31:54.140Z,18.09
2019-06-01T06:34:23.710Z,18.21
2019-06-01T06:36:53.185Z,18.34
2019-06-01T06:39:23.139Z,18.44
2019-06-01T06:41:53.614Z,18.56
2019-06-01T06:44:23.104Z,18.67
2019-06-01T06:46:52.560Z,18.77
2019-06-01T06:49:23.215Z,18.88
2019-06-01T06:51:52.877Z,18.99
2019-06-01T06:54:22.345Z,19.10
2019-06-01T06:56:51.908Z,19.22
2019-06-01T06:59:22.381Z,19.34
2019-06-01T07:01:51.952Z,19.45
2019-06-01T07:04:21.451Z,19.57
2019-06-01T07:06:50.914Z,19.69
2019-06-01T07:09:20.480Z,19.81
2019-06-01T07:11:50.602Z,19.94
2019-06-01T07:14:21.197Z,20.06
2019-06-01T07:16:50.873Z,20.17
2019-06-01T07:19:21.482Z,20.29
2019-06-01T07:21:51.142Z,20.39
2019-06-01T07:24:21.704Z,20.50
2019-06-01T07:26:51.335Z,20.60
2019-06-01T07:29:22.021Z,20.71
2019-06-01T07:31:51.583Z,20.81
2019-06-01T07:34:37.236Z,20.93
2019-06-01T07:36:52.302Z,21.05
2019-06-01T07:39:22.637Z,21.17
2019-06-01T07:41:52.243Z,21.29
2019-06-01T07:44:22.753Z,21.43
2019-06-01T07:46:52.387Z,21.56
2019-06-01T07:49:23.192Z,21.67
2019-06-01T07:51:52.880Z,21.77
2019-06-01T07:54:22.477Z,21.88
2019-06-01T07:56:51.973Z,22.00
2019-06-01T07:59:22.620Z,22.11
2019-06-01T08:01:52.681Z,22.23
2019-06-01T08:04:22.871Z,22.34
2019-06-01T08:06:53.401Z,22.45
2019-06-01T08:09:24.563Z,22.56
2019-06-01T08:11:54.097Z,22.67
2019-06-01T08:14:24.509Z,22.79
2019-06-01T08:16:54.116Z,22.90
2019-06-01T08:19:23.876Z,23.00
2019-06-01T08:21:53.549Z,23.11
2019-06-01T08:24:24.108Z,23.21
2019-06-01T08:26:53.798Z,23.33
2019-06-01T08:29:24.606Z,23.43
2019-06-01T08:31:55.852Z,23.55
2019-06-01T08:34:26.781Z,23.67
2019-06-01T08:36:56.452Z,23.80
2019-06-01T08:39:27.274Z,23.92
2019-06-01T08:41:56.911Z,24.01
2019-06-01T08:44:27.581Z,24.10
2019-06-01T08:46:57.301Z,24.18
2019-06-01T08:49:28.019Z,24.25
2019-06-01T08:51:57.678Z,24.33
2019-06-01T08:54:28.134Z,24.40
2019-06-01T08:56:57.637Z,24.49
2019-06-01T08:59:28.270Z,24.57
2019-06-01T09:01:57.884Z,24.63
2019-06-01T09:04:28.734Z,24.70
2019-06-01T09:06:58.392Z,24.78
2019-06-01T09:09:28.971Z,24.87
2019-06-01T09:11:58.512Z,24.95
2019-06-01T09:14:29.105Z,25.00
2019-06-01T09:16:58.742Z,25.06
2019-06-01T09:19:29.352Z,25.12
2019-06-01T09:21:58.985Z,25.17
2019-06-01T09:24:29.748Z,25.24
2019-06-01T09:26:59.306Z,25.32
2019-06-01T09:29:30.016Z,25.41
2019-06-01T09:31:59.560Z,25.50
2019-06-01T09:34:30.351Z,25.58
2019-06-01T09:36:59.986Z,25.68
2019-06-01T09:39:30.960Z,25.78
2019-06-01T09:42:00.534Z,25.90
2019-06-01T09:44:31.933Z,26.02
2019-06-01T09:47:01.219Z,26.14
2019-06-01T09:49:32.591Z,26.23
2019-06-01T09:52:01.976Z,26.33
2019-06-01T09:54:33.229Z,26.41
2019-06-01T09:57:02.879Z,26.47
2019-06-01T09:59:32.426Z,26.52
2019-06-01T10:02:01.889Z,26.57
2019-06-01T10:04:32.294Z,26.60
2019-06-01T10:07:01.955Z,26.60
2019-06-01T10:09:31.583Z,26.64
2019-06-01T10:12:01.041Z,26.70
2019-06-01T10:14:30.507Z,26.78
2019-06-01T10:17:00.056Z,26.84
2019-06-01T10:19:30.649Z,26.93
2019-06-01T10:22:00.237Z,26.95
2019-06-01T10:24:30.964Z,27.00
2019-06-01T10:27:00.649Z,27.04
2019-06-01T10:29:30.519Z,27.10
2019-06-01T10:32:00.092Z,27.15
2019-06-01T10:34:29.574Z,27.20
2019-06-01T10:36:59.064Z,27.26
2019-06-01T10:39:28.633Z,27.30
2019-06-01T10:41:58.109Z,27.37
2019-06-01T10:44:27.609Z,27.40
2019-06-01T10:46:57.099Z,27.47
2019-06-01T10:49:26.572Z,27.56
2019-06-01T10:51:56.059Z,27.61
2019-06-01T10:54:25.610Z,27.68
2019-06-01T10:56:55.115Z,27.73
2019-06-01T10:59:24.651Z,27.78
2019-06-01T11:01:54.139Z,27.83
2019-06-01T11:04:23.609Z,27.86
2019-06-01T11:06:53.118Z,27.89
2019-06-01T11:09:22.684Z,27.94
2019-06-01T11:11:52.151Z,27.98
2019-06-01T11:14:21.642Z,28.02
2019-06-01T11:16:56.000Z,28.07
2019-06-01T11:19:22.369Z,28.12
2019-06-01T11:21:51.889Z,28.19
2019-06-01T11:24:21.387Z,28.24
2019-06-01T11:26:50.917Z,28.28
2019-06-01T11:29:20.392Z,28.33
2019-06-01T11:31:49.956Z,28.39
2019-06-01T11:34:19.438Z,28.45
2019-06-01T11:37:04.499Z,28.49
2019-06-01T11:39:20.229Z,28.53
2019-06-01T11:41:49.702Z,28.56
2019-06-01T11:44:19.226Z,28.56
2019-06-01T11:46:48.683Z,28.59
2019-06-01T11:49:20.935Z,28.62
2019-06-01T11:51:49.460Z,28.64
2019-06-01T11:54:18.905Z,28.65
2019-06-01T11:56:48.422Z,28.63
2019-06-01T11:59:21.130Z,28.64
2019-06-01T12:01:49.105Z,28.68
2019-06-01T12:04:18.592Z,28.72
2019-06-01T12:07:17.757Z,28.79
2019-06-01T12:09:39.792Z,28.85
2019-06-01T12:12:09.604Z,28.91
2019-06-01T12:14:40.297Z,28.96
2019-06-01T12:17:09.939Z,29.01
2019-06-01T12:19:40.744Z,29.07
2019-06-01T12:22:10.311Z,29.12
2019-06-01T12:24:40.894Z,29.16
2019-06-01T12:27:10.566Z,29.19
2019-06-01T12:29:41.274Z,29.22
2019-06-01T12:32:11.054Z,29.25
2019-06-01T12:34:41.909Z,29.29
2019-06-01T12:37:11.492Z,29.32
2019-06-01T12:39:42.304Z,29.36
2019-06-01T12:42:11.870Z,29.40
2019-06-01T12:44:41.675Z,29.41
2019-06-01T12:47:11.193Z,29.42
2019-06-01T12:49:42.019Z,29.46
2019-06-01T12:52:11.644Z,29.50
2019-06-01T12:54:42.867Z,29.51
2019-06-01T12:57:12.426Z,29.52
2019-06-01T12:59:43.138Z,29.51
2019-06-01T13:02:12.743Z,29.49
2019-06-01T13:04:42.784Z,29.46
2019-06-01T13:07:12.465Z,29.45
2019-06-01T13:09:42.062Z,29.45
2019-06-01T13:12:11.507Z,29.45
2019-06-01T13:14:41.174Z,29.47
2019-06-01T13:17:10.736Z,29.48
2019-06-01T13:19:41.278Z,29.51
2019-06-01T13:22:10.882Z,29.52
2019-06-01T13:24:41.557Z,29.51
2019-06-01T13:27:11.067Z,29.54
2019-06-01T13:29:41.623Z,29.57
2019-06-01T13:32:11.238Z,29.62
2019-06-01T13:34:40.681Z,29.68
2019-06-01T13:37:10.189Z,29.73
2019-06-01T13:39:39.700Z,29.77
2019-06-01T13:42:09.158Z,29.79
2019-06-01T13:44:38.632Z,29.80
2019-06-01T13:47:08.146Z,29.81
2019-06-01T13:49:37.662Z,29.86
2019-06-01T13:52:07.364Z,29.92
2019-06-01T13:54:40.034Z,29.93
2019-06-01T13:57:08.043Z,29.96
2019-06-01T13:59:37.596Z,30.01
2019-06-01T14:02:07.229Z,30.05
2019-06-01T14:04:36.701Z,30.13
2019-06-01T14:07:07.540Z,30.18
2019-06-01T14:09:37.006Z,30.24
2019-06-01T14:12:06.664Z,30.29
2019-06-01T14:14:36.145Z,30.34
2019-06-01T14:17:05.747Z,30.38
2019-06-01T14:19:35.323Z,30.40
2019-06-01T14:22:04.858Z,30.37
2019-06-01T14:24:34.361Z,30.35
2019-06-01T14:27:03.817Z,30.36
2019-06-01T14:29:52.652Z,30.35
2019-06-01T14:32:22.224Z,30.36
2019-06-01T14:34:53.670Z,30.34
2019-06-01T14:37:24.408Z,30.29
2019-06-01T14:39:54.968Z,30.23
2019-06-01T14:42:24.713Z,30.13
2019-06-01T14:44:54.187Z,30.07
2019-06-01T14:47:23.726Z,30.01
2019-06-01T14:49:53.595Z,29.92
2019-06-01T14:52:23.119Z,29.89
2019-06-01T14:54:53.758Z,29.84
2019-06-01T14:57:23.335Z,29.82
2019-06-01T14:59:54.147Z,29.79
2019-06-01T15:02:23.729Z,29.78
2019-06-01T15:04:54.293Z,29.77
2019-06-01T15:07:23.927Z,29.76
2019-06-01T15:09:54.296Z,29.76
2019-06-01T15:12:23.789Z,29.75
2019-06-01T15:14:53.435Z,29.74
2019-06-01T15:17:22.927Z,29.72
2019-06-01T15:19:52.470Z,29.70
2019-06-01T15:22:21.995Z,29.68
2019-06-01T15:24:52.292Z,29.69
2019-06-01T15:27:21.853Z,29.67
2019-06-01T15:29:52.640Z,29.67
2019-06-01T15:32:22.195Z,29.64
2019-06-01T15:34:52.373Z,29.64
2019-06-01T15:37:21.940Z,29.62
2019-06-01T15:39:52.512Z,29.60
2019-06-01T15:42:22.209Z,29.59
2019-06-01T15:44:53.090Z,29.57
2019-06-01T15:47:22.669Z,29.57
2019-06-01T15:49:53.529Z,29.58
2019-06-01T15:52:24.275Z,29.61
2019-06-01T15:54:54.271Z,29.64
2019-06-01T15:57:23.919Z,29.64
2019-06-01T15:59:54.532Z,29.67
2019-06-01T16:02:24.098Z,29.72
2019-06-01T16:04:54.861Z,29.83
2019-06-01T16:07:24.742Z,30.12
2019-06-01T16:09:55.391Z,30.57
2019-06-01T16:12:24.939Z,31.10
2019-06-01T16:14:55.459Z,31.60
2019-06-01T16:17:24.977Z,32.09
2019-06-01T16:19:55.806Z,32.53
2019-06-01T16:22:25.340Z,32.97
2019-06-01T16:24:56.144Z,33.39
2019-06-01T16:27:25.695Z,33.75
2019-06-01T16:29:55.162Z,34.05
2019-06-01T16:32:24.664Z,34.38
2019-06-01T16:34:54.855Z,34.73
2019-06-01T16:37:24.395Z,35.07
2019-06-01T16:40:02.125Z,35.44
2019-06-01T16:42:25.156Z,35.77
2019-06-01T16:44:55.335Z,36.08
2019-06-01T16:47:24.912Z,36.38
2019-06-01T16:49:55.715Z,36.69
2019-06-01T16:52:25.262Z,37.01
2019-06-01T16:54:56.114Z,37.28
2019-06-01T16:57:25.792Z,37.55
2019-06-01T16:59:56.343Z,37.77
2019-06-01T17:02:25.848Z,37.92
2019-06-01T17:04:56.463Z,38.09
2019-06-01T17:07:26.149Z,38.22
2019-06-01T17:09:56.662Z,38.35
2019-06-01T17:12:26.480Z,38.42
2019-06-01T17:14:56.803Z,38.44
2019-06-01T17:17:26.529Z,38.42
2019-06-01T17:19:56.934Z,38.37
2019-06-01T17:22:26.581Z,38.30
2019-06-01T17:24:56.049Z,38.22
2019-06-01T17:27:25.600Z,38.09
2019-06-01T17:29:55.092Z,37.94
2019-06-01T17:32:25.016Z,37.79
2019-06-01T17:34:54.709Z,37.66
2019-06-01T17:37:24.236Z,37.62
2019-06-01T17:39:53.720Z,37.66
2019-06-01T17:42:23.397Z,37.70
2019-06-01T17:44:52.886Z,37.78
2019-06-01T17:47:22.367Z,37.85
2019-06-01T17:49:52.727Z,37.87
2019-06-01T17:52:22.344Z,37.90
2019-06-01T17:54:51.834Z,37.91
2019-06-01T17:57:21.413Z,37.92
2019-06-01T17:59:51.022Z,37.98
2019-06-01T18:02:20.492Z,38.02
2019-06-01T18:04:49.967Z,38.01
2019-06-01T18:07:19.615Z,38.00
2019-06-01T18:09:49.163Z,37.98
2019-06-01T18:12:18.818Z,37.86
2019-06-01T18:14:48.335Z,37.51
2019-06-01T18:17:18.486Z,36.92
2019-06-01T18:19:47.948Z,36.21
2019-06-01T18:22:17.583Z,35.48
2019-06-01T18:24:47.136Z,34.76
2019-06-01T18:27:16.707Z,34.09
2019-06-01T18:29:48.768Z,33.45
2019-06-01T18:32:17.433Z,32.85
2019-06-01T18:34:47.022Z,32.28
2019-06-01T18:37:16.571Z,31.73
2019-06-01T18:39:48.035Z,31.19
2019-06-01T18:42:18.840Z,30.71
2019-06-01T18:44:48.884Z,30.24
2019-06-01T18:47:31.947Z,29.80
2019-06-01T18:49:50.175Z,29.38
2019-06-01T18:52:20.184Z,28.99
2019-06-01T18:54:49.747Z,28.60
2019-06-01T18:57:21.507Z,28.24
2019-06-01T18:59:50.811Z,27.89
2019-06-01T19:02:20.301Z,27.57
2019-06-01T19:04:49.856Z,27.24
2019-06-01T19:07:19.355Z,26.92
2019-06-01T19:09:48.868Z,26.64
2019-06-01T19:12:18.363Z,26.38
2019-06-01T19:14:47.868Z,26.11
2019-06-01T19:17:17.423Z,25.86
2019-06-01T19:19:46.900Z,25.62
2019-06-01T19:22:16.728Z,25.40
2019-06-01T19:24:46.369Z,25.17
2019-06-01T19:27:17.075Z,24.92
2019-06-01T19:29:46.670Z,24.70
2019-06-01T19:32:20.585Z,24.48
2019-06-01T19:34:48.458Z,24.26
2019-06-01T19:37:19.526Z,24.08
2019-06-01T19:39:49.631Z,23.88
2019-06-01T19:44:47.921Z,23.49
2019-06-01T19:47:18.769Z,23.30
2019-06-01T19:49:48.761Z,23.13
2019-06-01T19:52:19.021Z,22.96
2019-06-01T19:54:48.730Z,22.79
2019-06-01T19:57:21.821Z,22.65
2019-06-01T19:59:49.477Z,22.50
2019-06-01T20:02:29.613Z,22.36
2019-06-01T20:04:50.262Z,22.23
2019-06-01T20:07:19.758Z,22.09
2019-06-01T20:09:49.269Z,21.96
2019-06-01T20:12:20.417Z,21.84
2019-06-01T20:14:50.069Z,21.73
2019-06-01T20:17:24.051Z,21.61
2019-06-01T20:19:50.784Z,21.51
2019-06-01T20:22:21.296Z,21.40
2019-06-01T20:24:51.062Z,21.30
2019-06-01T20:27:21.634Z,21.20
2019-06-01T20:29:51.497Z,21.10
2019-06-01T20:32:22.193Z,21.01
2019-06-01T20:34:51.835Z,20.92
2019-06-01T20:37:22.206Z,20.84
2019-06-01T20:39:51.989Z,20.75
2019-06-01T20:42:30.199Z,20.66
2019-06-01T20:44:53.041Z,20.59
2019-06-01T20:47:22.936Z,20.49
2019-06-01T20:49:53.232Z,20.42
2019-06-01T20:52:23.273Z,20.34
2019-06-01T20:54:52.927Z,20.25
2019-06-01T20:57:24.000Z,20.17
2019-06-01T20:59:53.602Z,20.10
2019-06-01T21:02:24.149Z,20.03
2019-06-01T21:04:53.669Z,19.95
2019-06-01T21:07:24.176Z,19.88
2019-06-01T21:09:53.957Z,19.81
2019-06-01T21:12:42.606Z,19.75
2019-06-01T21:14:55.059Z,19.70
2019-06-01T21:17:24.911Z,19.64
2019-06-01T21:19:54.424Z,19.59
2019-06-01T21:22:24.940Z,19.54
2019-06-01T21:24:54.624Z,19.47
2019-06-01T21:27:24.862Z,19.44
2019-06-01T21:29:54.559Z,19.40
2019-06-01T21:32:24.049Z,19.36
2019-06-01T21:34:53.526Z,19.33
2019-06-01T21:37:23.511Z,19.29
2019-06-01T21:39:53.098Z,19.26
2019-06-01T21:42:23.643Z,19.22
2019-06-01T21:44:53.346Z,19.19
2019-06-01T21:47:23.814Z,19.15
2019-06-01T21:49:53.485Z,19.11
2019-06-01T21:52:24.152Z,19.07
2019-06-01T21:54:53.808Z,19.05
2019-06-01T21:57:24.578Z,19.01
2019-06-01T21:59:54.225Z,18.96
2019-06-01T22:02:24.961Z,18.92
2019-06-01T22:04:54.546Z,18.88
2019-06-01T22:07:25.318Z,18.84
2019-06-01T22:09:54.959Z,18.80
2019-06-01T22:12:25.673Z,18.77
2019-06-01T22:14:55.283Z,18.73
2019-06-01T22:17:25.862Z,18.68
2019-06-01T22:19:55.433Z,18.66
2019-06-01T22:22:25.843Z,18.61
2019-06-01T22:24:55.444Z,18.59
2019-06-01T22:27:26.265Z,18.55
2019-06-01T22:29:55.887Z,18.52
2019-06-01T22:32:29.150Z,18.51
2019-06-01T22:34:56.698Z,18.49
2019-06-01T22:37:26.183Z,18.47
2019-06-01T22:39:55.676Z,18.46
2019-06-01T22:42:26.322Z,18.42
2019-06-01T22:44:55.937Z,18.42
2019-06-01T22:47:26.624Z,18.41
2019-06-01T22:49:56.217Z,18.39
2019-06-01T22:52:26.937Z,18.39
2019-06-01T22:54:56.548Z,18.38
2019-06-01T22:57:26.598Z,18.37
2019-06-01T22:59:56.437Z,18.36
2019-06-01T23:02:25.932Z,18.34
2019-06-01T23:04:55.389Z,18.32
2019-06-01T23:07:25.178Z,18.31
2019-06-01T23:09:55.099Z,18.29
2019-06-01T23:12:25.451Z,18.28
2019-06-01T23:14:55.090Z,18.26
2019-06-01T23:17:25.773Z,18.24
2019-06-01T23:19:55.572Z,18.22
2019-06-01T23:22:25.988Z,18.20
2019-06-01T23:24:55.626Z,18.18
2019-06-01T23:27:26.198Z,18.17
2019-06-01T23:29:55.809Z,18.15
2019-06-01T23:32:26.351Z,18.12
2019-06-01T23:34:56.010Z,18.10
2019-06-01T23:37:26.660Z,18.08
2019-06-01T23:39:56.253Z,18.06
2019-06-01T23:42:26.748Z,18.05
2019-06-01T23:44:56.425Z,18.04
2019-06-01T23:47:27.278Z,18.00
2019-06-01T23:49:57.050Z,17.99
2019-06-01T23:52:27.516Z,17.98
2019-06-01T23:54:57.084Z,17.96
2019-06-01T23:57:27.744Z,17.97
2019-06-01T23:59:57.566Z,17.95
